createdAt,value
2023-05-22T00:00:26.823Z,5.00
2023-05-22T00:02:54.359Z,5.40
2023-05-22T00:05:21.801Z,4.80
2023-05-22T00:07:49.283Z,5.30
2023-05-22T00:10:16.524Z,4.90
2023-05-22T00:12:43.723Z,5.10
2023-05-22T00:15:11.806Z,4.00
2023-05-22T00:17:39.613Z,4.30
2023-05-22T00:20:08.928Z,4.40
2023-05-22T00:22:36.664Z,4.60
2023-05-22T00:25:04.611Z,4.30
2023-05-22T00:27:33.249Z,5.00
2023-05-22T00:30:00.363Z,4.70
2023-05-22T00:32:27.724Z,4.40
2023-05-22T00:34:55.380Z,5.10
2023-05-22T00:37:22.402Z,4.80
2023-05-22T00:39:49.710Z,5.10
2023-05-22T00:42:17.044Z,4.50
2023-05-22T00:44:44.264Z,4.60
2023-05-22T00:47:11.661Z,3.70
2023-05-22T00:49:39.868Z,3.80
2023-05-22T00:52:07.175Z,4.10
2023-05-22T00:54:34.182Z,4.50
2023-05-22T00:57:01.612Z,4.70
2023-05-22T00:59:29.304Z,5.40
2023-05-22T01:01:57.418Z,5.10
2023-05-22T01:04:24.976Z,4.90
2023-05-22T01:06:53.985Z,4.70
2023-05-22T01:09:21.017Z,4.60
2023-05-22T01:12:07.373Z,4.10
2023-05-22T01:15:13.606Z,4.70
2023-05-22T01:17:48.049Z,3.40
2023-05-22T01:20:33.704Z,3.50
2023-05-22T01:23:28.986Z,3.90
2023-05-22T01:26:34.739Z,4.20
2023-05-22T01:29:42.291Z,4.00
2023-05-22T01:32:11.139Z,4.30
2023-05-22T01:34:38.611Z,4.60
2023-05-22T01:37:05.633Z,5.00
2023-05-22T01:39:32.656Z,4.00
2023-05-22T01:41:59.708Z,4.70
2023-05-22T01:44:27.083Z,4.90
2023-05-22T01:46:56.437Z,5.00
2023-05-22T01:49:23.840Z,3.30
2023-05-22T01:51:53.653Z,3.70
2023-05-22T01:54:37.651Z,4.00
2023-05-22T01:57:25.016Z,4.00
2023-05-22T02:00:09.947Z,4.20
2023-05-22T02:02:47.994Z,4.70
2023-05-22T02:05:18.843Z,4.60
2023-05-22T02:07:46.345Z,4.30
2023-05-22T02:10:13.393Z,4.50
2023-05-22T02:12:40.587Z,5.00
2023-05-22T02:15:08.742Z,3.90
2023-05-22T02:17:42.689Z,3.40
2023-05-22T02:20:14.450Z,4.20
2023-05-22T02:22:47.388Z,4.40
2023-05-22T02:27:43.089Z,4.30
2023-05-22T02:30:12.008Z,4.90
2023-05-22T02:32:40.570Z,4.70
2023-05-22T02:35:09.745Z,5.00
2023-05-22T02:37:37.220Z,5.00
2023-05-22T02:40:07.437Z,3.90
2023-05-22T02:42:35.934Z,3.70
2023-05-22T02:45:03.250Z,4.30
2023-05-22T02:47:30.907Z,4.70
2023-05-22T02:49:58.427Z,5.00
2023-05-22T02:52:25.463Z,4.60
2023-05-22T02:54:52.602Z,5.20
2023-05-22T02:57:20.038Z,5.30
2023-05-22T02:59:47.133Z,5.00
2023-05-22T03:02:15.554Z,3.90
2023-05-22T03:04:42.837Z,4.00
2023-05-22T03:07:10.183Z,4.30
2023-05-22T03:09:37.406Z,4.50
2023-05-22T03:12:07.838Z,4.40
2023-05-22T03:17:02.641Z,4.80
2023-05-22T03:19:30.285Z,4.80
2023-05-22T03:21:58.254Z,5.00
2023-05-22T03:24:26.269Z,5.10
2023-05-22T03:26:53.342Z,5.50
2023-05-22T03:29:26.660Z,4.50
2023-05-22T03:31:54.566Z,4.30
2023-05-22T03:34:27.574Z,4.50
2023-05-22T03:36:55.064Z,5.00
2023-05-22T03:39:22.107Z,5.50
2023-05-22T03:41:54.885Z,5.70
2023-05-22T03:44:24.497Z,5.20
2023-05-22T03:46:52.065Z,6.20
2023-05-22T03:49:19.122Z,5.30
2023-05-22T03:51:46.160Z,4.90
2023-05-22T03:54:13.325Z,5.10
2023-05-22T03:56:41.944Z,5.40
2023-05-22T03:59:08.958Z,6.10
2023-05-22T04:01:39.485Z,4.40
2023-05-22T04:04:06.772Z,5.30
2023-05-22T04:06:34.310Z,6.90
2023-05-22T04:09:01.995Z,7.60
2023-05-22T04:11:32.339Z,7.80
2023-05-22T04:14:03.314Z,6.90
2023-05-22T04:16:30.652Z,6.70
2023-05-22T04:18:58.175Z,6.00
2023-05-22T04:21:25.353Z,5.80
2023-05-22T04:23:52.463Z,5.50
2023-05-22T04:26:20.840Z,5.90
2023-05-22T04:28:48.008Z,5.50
2023-05-22T04:31:15.242Z,5.60
2023-05-22T04:33:42.911Z,6.00
2023-05-22T04:36:12.470Z,5.70
2023-05-22T04:38:41.477Z,6.00
2023-05-22T04:41:13.573Z,5.70
2023-05-22T04:43:40.859Z,5.10
2023-05-22T04:46:09.057Z,5.50
2023-05-22T04:48:37.015Z,6.00
2023-05-22T04:51:04.804Z,5.30
2023-05-22T04:53:33.530Z,6.10
2023-05-22T04:56:00.913Z,5.10
2023-05-22T04:58:28.434Z,5.90
2023-05-22T05:00:58.380Z,5.50
2023-05-22T05:03:28.949Z,5.50
2023-05-22T05:05:56.928Z,5.10
2023-05-22T05:08:23.958Z,5.10
2023-05-22T05:10:51.049Z,6.00
2023-05-22T05:13:18.220Z,8.30
2023-05-22T05:15:46.016Z,5.40
2023-05-22T05:18:13.620Z,4.80
2023-05-22T05:20:42.969Z,4.80
2023-05-22T05:23:10.513Z,4.80
2023-05-22T05:25:38.832Z,5.20
2023-05-22T05:28:10.857Z,5.10
2023-05-22T05:30:39.633Z,5.10
2023-05-22T05:33:29.991Z,4.70
2023-05-22T05:36:02.816Z,5.10
2023-05-22T05:38:30.554Z,4.50
2023-05-22T05:40:57.661Z,4.90
2023-05-22T05:43:25.634Z,5.20
2023-05-22T05:45:55.459Z,5.00
2023-05-22T05:48:23.013Z,4.50
2023-05-22T05:50:50.134Z,5.00
2023-05-22T05:53:17.408Z,4.40
2023-05-22T05:55:49.532Z,4.30
2023-05-22T05:58:17.774Z,4.20
2023-05-22T06:01:13.114Z,4.70
2023-05-22T06:03:40.423Z,4.70
2023-05-22T06:06:17.771Z,4.70
2023-05-22T06:09:08.393Z,4.20
2023-05-22T06:11:46.901Z,4.50
2023-05-22T06:14:14.328Z,4.20
2023-05-22T06:16:41.741Z,4.20
2023-05-22T06:19:09.099Z,5.00
2023-05-22T06:21:37.206Z,4.20
2023-05-22T06:24:04.509Z,6.20
2023-05-22T06:26:31.886Z,5.10
2023-05-22T06:28:58.856Z,4.90
2023-05-22T06:31:26.204Z,4.90
2023-05-22T06:33:55.429Z,4.20
2023-05-22T06:36:23.493Z,4.60
2023-05-22T06:38:55.141Z,4.50
2023-05-22T06:41:42.172Z,3.90
2023-05-22T06:44:10.443Z,3.60
2023-05-22T06:46:38.895Z,5.10
2023-05-22T06:49:06.617Z,3.80
2023-05-22T06:51:43.947Z,3.50
2023-05-22T06:54:13.874Z,3.30
2023-05-22T06:56:43.457Z,3.70
2023-05-22T06:59:15.278Z,3.50
2023-05-22T07:02:02.557Z,3.60
2023-05-22T07:04:50.031Z,3.60
2023-05-22T07:07:21.871Z,3.80
2023-05-22T07:09:49.665Z,3.40
2023-05-22T07:12:17.848Z,4.10
2023-05-22T07:14:45.400Z,4.30
2023-05-22T07:17:12.924Z,3.60
2023-05-22T07:19:43.036Z,3.70
2023-05-22T07:22:10.096Z,4.20
2023-05-22T07:24:38.564Z,3.90
2023-05-22T07:27:06.011Z,5.40
2023-05-22T07:29:33.566Z,4.00
2023-05-22T07:32:01.166Z,4.00
2023-05-22T07:34:33.184Z,3.80
2023-05-22T07:37:06.815Z,3.50
2023-05-22T07:39:34.595Z,3.70
2023-05-22T07:42:02.069Z,4.60
2023-05-22T07:44:29.807Z,3.70
2023-05-22T07:46:57.016Z,4.40
2023-05-22T07:49:25.770Z,3.40
2023-05-22T07:51:52.942Z,5.00
2023-05-22T07:54:21.000Z,4.10
2023-05-22T07:56:50.474Z,4.00
2023-05-22T07:59:19.892Z,4.20
2023-05-22T08:01:47.119Z,5.50
2023-05-22T08:04:14.429Z,3.70
2023-05-22T08:06:43.927Z,3.60
2023-05-22T08:09:11.007Z,3.50
2023-05-22T08:11:40.254Z,3.60
2023-05-22T08:14:07.856Z,3.50
2023-05-22T08:16:35.446Z,3.50
2023-05-22T08:19:02.761Z,3.80
2023-05-22T08:21:33.224Z,3.60
2023-05-22T08:24:01.280Z,3.70
2023-05-22T08:26:30.132Z,3.40
2023-05-22T08:28:59.639Z,3.60
2023-05-22T08:31:29.336Z,5.30
2023-05-22T08:34:02.497Z,4.00
2023-05-22T08:36:31.603Z,3.40
2023-05-22T08:38:58.638Z,3.90
2023-05-22T08:41:25.666Z,3.50
2023-05-22T08:43:53.213Z,4.20
2023-05-22T08:46:20.235Z,3.40
2023-05-22T08:48:47.932Z,3.70
2023-05-22T08:51:15.533Z,4.00
2023-05-22T08:53:43.013Z,4.90
2023-05-22T08:56:10.045Z,3.60
2023-05-22T08:58:37.729Z,4.20
2023-05-22T09:01:05.582Z,4.60
2023-05-22T09:03:33.412Z,3.20
2023-05-22T09:06:04.276Z,3.50
2023-05-22T09:08:33.382Z,3.60
2023-05-22T09:11:00.520Z,3.70
2023-05-22T09:13:31.535Z,4.10
2023-05-22T09:16:00.806Z,3.70
2023-05-22T09:18:28.996Z,4.70
2023-05-22T09:20:59.351Z,4.40
2023-05-22T13:43:28.499Z,7.70
2023-05-22T13:45:55.829Z,6.90
2023-05-22T13:48:23.421Z,6.70
2023-05-22T13:50:50.565Z,6.10
2023-05-22T13:53:18.495Z,6.10
2023-05-22T13:55:45.578Z,5.90
2023-05-22T13:58:12.667Z,5.80
2023-05-22T14:00:39.880Z,5.70
2023-05-22T14:03:07.129Z,6.00
2023-05-22T14:05:34.542Z,6.50
2023-05-22T14:08:01.753Z,6.30
2023-05-22T14:10:29.416Z,6.70
2023-05-22T14:12:56.604Z,6.20
2023-05-22T14:15:24.331Z,5.90
2023-05-22T14:17:51.439Z,5.90
2023-05-22T14:20:18.685Z,5.80
2023-05-22T14:22:57.210Z,6.00
2023-05-22T14:25:26.309Z,5.70
2023-05-22T14:27:53.650Z,5.70
2023-05-22T14:30:20.817Z,5.50
2023-05-22T14:32:48.899Z,5.80
2023-05-22T14:35:16.827Z,5.40
2023-05-22T14:37:44.097Z,6.60
2023-05-22T14:40:11.316Z,5.40
2023-05-22T14:42:39.019Z,6.00
2023-05-22T14:45:06.520Z,5.10
2023-05-22T14:47:34.263Z,7.50
2023-05-22T14:50:14.675Z,6.00
2023-05-22T14:52:46.518Z,6.60
2023-05-22T14:55:13.593Z,5.60
2023-05-22T14:57:40.532Z,7.00
2023-05-22T15:00:09.894Z,5.30
2023-05-22T15:02:39.281Z,5.60
2023-05-22T15:05:07.364Z,5.60
2023-05-22T15:07:43.912Z,5.50
2023-05-22T15:10:13.066Z,6.00
2023-05-22T15:12:40.968Z,5.50
2023-05-22T15:15:08.795Z,5.50
2023-05-22T15:17:36.324Z,5.50
2023-05-22T15:20:05.491Z,5.50
2023-05-22T15:22:33.355Z,5.30
2023-05-22T15:25:18.676Z,5.60
2023-05-22T15:27:45.929Z,5.20
2023-05-22T15:30:13.215Z,5.70
2023-05-22T15:32:40.671Z,5.50
2023-05-22T15:35:10.226Z,5.30
2023-05-22T15:37:38.188Z,5.70
2023-05-22T15:40:06.247Z,6.10
2023-05-22T15:42:33.772Z,4.90
2023-05-22T15:45:01.207Z,5.20
2023-05-22T15:47:29.241Z,9.30
2023-05-22T15:49:56.271Z,5.50
2023-05-22T15:52:24.654Z,5.30
2023-05-22T15:54:56.991Z,5.30
2023-05-22T15:57:26.392Z,5.60
2023-05-22T15:59:53.348Z,4.60
2023-05-22T16:02:20.299Z,5.40
2023-05-22T16:04:47.387Z,5.40
2023-05-22T16:07:14.625Z,7.90
2023-05-22T16:09:43.405Z,5.80
2023-05-22T16:12:12.998Z,5.70
2023-05-22T16:14:41.849Z,4.90
2023-05-22T16:17:08.961Z,5.60
2023-05-22T16:19:36.201Z,6.30
2023-05-22T16:22:03.862Z,6.00
2023-05-22T16:24:31.096Z,5.60
2023-05-22T16:26:59.280Z,5.50
2023-05-22T16:29:26.234Z,5.30
2023-05-22T16:31:53.322Z,5.50
2023-05-22T16:34:20.621Z,5.40
2023-05-22T16:36:47.666Z,5.40
2023-05-22T16:39:15.642Z,5.60
2023-05-22T16:41:42.744Z,6.30
2023-05-22T16:44:09.877Z,6.70
2023-05-22T16:46:36.916Z,5.10
2023-05-22T16:49:04.162Z,5.80
2023-05-22T16:51:31.443Z,5.20
2023-05-22T16:53:58.627Z,6.20
2023-05-22T16:56:26.127Z,5.50
2023-05-22T16:58:53.422Z,5.50
2023-05-22T17:01:22.072Z,5.70
2023-05-22T17:03:49.725Z,6.00
2023-05-22T17:06:19.454Z,5.30
2023-05-22T17:08:48.007Z,6.20
2023-05-22T17:11:14.972Z,5.80
2023-05-22T17:13:42.640Z,6.80
2023-05-22T17:16:09.808Z,5.90
2023-05-22T17:18:37.999Z,8.30
2023-05-22T17:21:05.273Z,7.40
2023-05-22T17:23:37.023Z,7.40
2023-05-22T17:26:04.587Z,7.90
2023-05-22T17:28:32.095Z,7.60
2023-05-22T17:30:59.457Z,7.80
2023-05-22T17:33:26.871Z,6.80
2023-05-22T17:35:54.867Z,7.00
2023-05-22T17:38:22.102Z,7.10
2023-05-22T17:40:49.548Z,7.00
2023-05-22T17:43:19.033Z,7.70
2023-05-22T17:45:55.210Z,10.10
2023-05-22T17:48:27.276Z,9.40
2023-05-22T17:50:54.835Z,9.20
2023-05-22T17:53:21.983Z,8.50
2023-05-22T17:55:49.998Z,8.20
2023-05-22T17:58:17.270Z,6.90
2023-05-22T18:00:45.761Z,6.80
2023-05-22T18:03:13.412Z,6.70
2023-05-22T18:05:41.403Z,8.00
2023-05-22T18:08:08.822Z,8.00
2023-05-22T18:10:38.378Z,7.70
2023-05-22T18:13:06.099Z,8.40
2023-05-22T18:15:33.493Z,9.20
2023-05-22T18:18:00.811Z,8.80
2023-05-22T18:20:29.302Z,8.90
2023-05-22T18:22:56.681Z,9.00
2023-05-22T18:25:23.837Z,9.80
2023-05-22T18:27:50.846Z,9.30
2023-05-22T18:30:18.068Z,9.80
2023-05-22T18:32:46.214Z,9.30
2023-05-22T18:35:13.393Z,9.00
2023-05-22T18:37:40.717Z,9.10
2023-05-22T18:40:09.579Z,8.90
2023-05-22T18:42:39.156Z,8.90
2023-05-22T18:45:08.968Z,8.60
2023-05-22T18:47:38.215Z,8.90
2023-05-22T18:50:05.960Z,8.90
2023-05-22T18:52:33.491Z,9.60
2023-05-22T18:55:00.571Z,10.30
2023-05-22T18:57:27.591Z,10.10
2023-05-22T18:59:55.901Z,9.90
2023-05-22T19:02:23.109Z,9.90
2023-05-22T19:04:50.641Z,9.40
2023-05-22T19:07:17.761Z,8.90
2023-05-22T19:09:44.888Z,8.40
2023-05-22T19:12:11.956Z,8.10
2023-05-22T19:14:39.983Z,8.60
2023-05-22T19:17:07.249Z,8.60
2023-05-22T19:19:34.474Z,8.70
2023-05-22T19:22:01.570Z,8.40
2023-05-22T19:24:28.989Z,8.00
2023-05-22T19:26:56.098Z,8.20
2023-05-22T19:29:23.544Z,8.20
2023-05-22T19:31:50.667Z,8.50
2023-05-22T19:34:17.715Z,8.00
2023-05-22T19:36:44.859Z,8.00
2023-05-22T19:39:12.162Z,7.60
2023-05-22T19:41:39.267Z,8.40
2023-05-22T19:44:07.130Z,7.60
2023-05-22T19:46:34.815Z,7.30
2023-05-22T19:49:04.913Z,7.50
2023-05-22T19:51:32.485Z,8.30
2023-05-22T19:53:59.805Z,7.20
2023-05-22T19:56:27.250Z,7.20
2023-05-22T19:58:54.310Z,7.80
2023-05-22T20:01:21.593Z,7.70
2023-05-22T20:03:49.886Z,7.20
2023-05-22T20:06:19.093Z,7.90
2023-05-22T20:08:46.382Z,7.70
2023-05-22T20:11:13.541Z,7.60
2023-05-22T20:13:40.811Z,8.00
2023-05-22T20:16:11.997Z,8.20
2023-05-22T20:18:41.090Z,8.60
2023-05-22T20:21:09.814Z,7.80
2023-05-22T20:23:37.316Z,8.10
2023-05-22T20:26:05.586Z,8.00
2023-05-22T20:28:32.659Z,8.30
2023-05-22T20:30:59.706Z,7.50
2023-05-22T20:33:27.883Z,8.00
2023-05-22T20:35:54.982Z,7.80
2023-05-22T20:38:22.628Z,7.50
2023-05-22T20:40:50.077Z,7.80
2023-05-22T20:43:18.660Z,7.80
2023-05-22T20:45:46.813Z,8.00
2023-05-22T20:48:15.082Z,7.80
2023-05-22T20:50:42.559Z,8.50
2023-05-22T20:53:09.778Z,7.90
2023-05-22T20:55:37.200Z,7.50
2023-05-22T20:58:04.341Z,7.40
2023-05-22T21:00:31.415Z,7.10
2023-05-22T21:02:59.691Z,6.90
2023-05-22T21:05:26.927Z,7.20
2023-05-22T21:07:55.715Z,7.40
2023-05-22T21:10:23.357Z,7.60
2023-05-22T21:12:50.696Z,7.10
2023-05-22T21:15:17.987Z,7.20
2023-05-22T21:17:45.628Z,7.30
2023-05-22T21:20:12.693Z,7.50
2023-05-22T21:22:39.739Z,6.00
2023-05-22T21:25:07.584Z,6.50
2023-05-22T21:27:34.637Z,7.20
2023-05-22T21:30:01.834Z,6.70
2023-05-22T21:32:31.007Z,6.90
2023-05-22T21:34:58.140Z,7.20
2023-05-22T21:37:25.727Z,6.80
2023-05-22T21:39:52.948Z,7.20
2023-05-22T21:42:21.344Z,7.40
2023-05-22T21:44:48.554Z,6.60
2023-05-22T21:47:15.610Z,6.80
2023-05-22T21:49:42.690Z,6.80
2023-05-22T21:52:09.953Z,6.70
2023-05-22T21:54:39.547Z,6.60
2023-05-22T21:57:07.069Z,6.60
2023-05-22T21:59:34.506Z,6.80
2023-05-22T22:02:01.724Z,7.10
2023-05-22T22:04:29.075Z,6.70
2023-05-22T22:06:56.220Z,6.90
2023-05-22T22:09:23.234Z,6.80
2023-05-22T22:11:50.805Z,6.70
2023-05-22T22:14:18.037Z,5.90
2023-05-22T22:16:45.605Z,5.90
2023-05-22T22:19:12.956Z,6.20
2023-05-22T22:21:40.126Z,6.60
2023-05-22T22:24:07.257Z,6.70
2023-05-22T22:26:35.717Z,6.60
2023-05-22T22:29:02.823Z,6.80
2023-05-22T22:31:30.071Z,7.10
2023-05-22T22:33:57.982Z,6.90
2023-05-22T22:36:25.097Z,7.20
2023-05-22T22:38:52.059Z,6.70
2023-05-22T22:41:19.182Z,7.20
2023-05-22T22:43:46.835Z,6.50
2023-05-22T22:46:14.175Z,7.50
2023-05-22T22:48:41.859Z,6.90
2023-05-22T22:51:09.890Z,7.20
2023-05-22T22:53:37.374Z,5.90
2023-05-22T22:56:04.561Z,5.70
2023-05-22T22:58:32.576Z,6.70
2023-05-22T23:00:59.776Z,6.80
2023-05-22T23:03:27.579Z,6.70
2023-05-22T23:05:54.647Z,6.10
2023-05-22T23:08:21.648Z,7.00
2023-05-22T23:10:48.727Z,7.10
2023-05-22T23:13:16.229Z,7.90
2023-05-22T23:15:43.689Z,6.60
2023-05-22T23:18:13.699Z,7.20
2023-05-22T23:20:40.960Z,7.10
2023-05-22T23:23:08.083Z,7.00
2023-05-22T23:25:35.172Z,7.10
2023-05-22T23:28:02.358Z,6.90
2023-05-22T23:30:30.175Z,5.90
2023-05-22T23:32:57.342Z,6.40
2023-05-22T23:35:24.520Z,6.90
2023-05-22T23:37:51.646Z,6.50
2023-05-22T23:40:18.866Z,6.90
2023-05-22T23:42:46.185Z,7.50
2023-05-22T23:45:13.377Z,7.60
2023-05-22T23:47:40.926Z,6.80
2023-05-22T23:50:11.224Z,6.80
2023-05-22T23:52:39.214Z,7.60
2023-05-22T23:55:07.075Z,7.50
2023-05-22T23:57:34.293Z,8.10
